createdAt,value
2022-10-15T00:02:13.820Z,22.20
2022-10-15T00:04:44.812Z,22.30
2022-10-15T00:07:15.761Z,21.90
2022-10-15T00:09:46.640Z,21.30
2022-10-15T00:12:17.578Z,21.70
2022-10-15T00:14:48.442Z,22.20
2022-10-15T00:17:19.374Z,22.30
2022-10-15T00:19:50.284Z,22.20
2022-10-15T00:22:21.386Z,22.00
2022-10-15T00:24:52.542Z,22.10
2022-10-15T00:27:23.426Z,22.20
2022-10-15T00:29:54.325Z,22.30
2022-10-15T00:32:25.700Z,22.40
2022-10-15T00:34:57.231Z,22.10
2022-10-15T00:37:28.156Z,22.10
2022-10-15T00:39:59.101Z,22.10
2022-10-15T00:42:30.044Z,22.20
2022-10-15T00:45:00.989Z,22.20
2022-10-15T00:47:39.765Z,22.30
2022-10-15T00:50:17.442Z,22.20
2022-10-15T00:53:10.940Z,22.50
2022-10-15T00:55:43.868Z,22.50
2022-10-15T00:58:18.310Z,22.30
2022-10-15T01:00:49.390Z,22.30
2022-10-15T01:03:21.280Z,22.30
2022-10-15T01:05:53.591Z,22.40
2022-10-15T01:08:24.495Z,22.30
2022-10-15T01:11:14.207Z,22.30
2022-10-15T01:14:34.060Z,22.70
2022-10-15T01:17:28.537Z,22.70
2022-10-15T01:20:12.123Z,22.20
2022-10-15T01:23:08.830Z,22.70
2022-10-15T01:26:43.759Z,22.20
2022-10-15T01:29:45.544Z,22.20
2022-10-15T01:32:48.232Z,22.20
2022-10-15T01:35:22.890Z,22.10
2022-10-15T01:38:21.082Z,22.40
2022-10-15T01:41:14.459Z,22.20
2022-10-15T01:44:11.648Z,21.80
2022-10-15T01:46:48.592Z,21.80
2022-10-15T01:49:26.154Z,22.20
2022-10-15T01:51:59.031Z,22.20
2022-10-15T01:54:31.248Z,21.90
2022-10-15T01:57:03.553Z,21.70
2022-10-15T01:59:35.126Z,22.10
2022-10-15T02:02:06.030Z,21.90
2022-10-15T02:04:36.997Z,21.60
2022-10-15T02:07:24.239Z,21.60
2022-10-15T02:09:55.110Z,22.30
2022-10-15T02:13:03.612Z,22.50
2022-10-15T02:15:51.612Z,22.40
2022-10-15T02:18:55.334Z,22.50
2022-10-15T02:21:41.513Z,22.20
2022-10-15T02:24:20.909Z,22.40
2022-10-15T02:26:59.366Z,22.10
2022-10-15T02:29:35.220Z,21.40
2022-10-15T02:32:12.075Z,22.20
2022-10-15T02:34:46.082Z,22.50
2022-10-15T02:37:24.785Z,22.70
2022-10-15T02:39:55.881Z,22.70
2022-10-15T02:42:27.485Z,22.20
2022-10-15T02:44:58.425Z,22.30
2022-10-15T02:47:29.415Z,22.50
2022-10-15T02:50:00.502Z,22.10
2022-10-15T02:52:31.363Z,21.90
2022-10-15T02:55:02.291Z,22.30
2022-10-15T02:57:33.179Z,22.40
2022-10-15T03:00:05.997Z,22.40
2022-10-15T03:02:36.933Z,22.40
2022-10-15T03:05:08.507Z,22.30
2022-10-15T03:07:39.554Z,22.30
2022-10-15T03:10:10.575Z,22.60
2022-10-15T03:12:41.475Z,22.70
2022-10-15T03:15:12.515Z,22.80
2022-10-15T03:17:43.477Z,22.10
2022-10-15T03:20:14.428Z,22.60
2022-10-15T03:22:45.300Z,22.20
2022-10-15T03:25:16.335Z,22.50
2022-10-15T03:27:47.871Z,22.60
2022-10-15T03:30:19.973Z,22.50
2022-10-15T03:32:50.995Z,22.60
2022-10-15T03:35:21.891Z,22.50
2022-10-15T03:37:52.799Z,22.60
2022-10-15T03:40:23.755Z,22.50
2022-10-15T03:42:56.486Z,22.30
2022-10-15T03:45:27.844Z,22.40
2022-10-15T03:47:58.741Z,22.30
2022-10-15T03:50:29.702Z,21.90
2022-10-15T03:53:04.776Z,22.20
2022-10-15T03:55:35.746Z,22.80
2022-10-15T03:58:06.896Z,22.60
2022-10-15T04:00:41.666Z,22.80
2022-10-15T04:03:12.674Z,22.70
2022-10-15T04:05:54.734Z,22.70
2022-10-15T04:08:26.847Z,22.50
2022-10-15T04:10:59.246Z,22.50
2022-10-15T04:13:30.385Z,22.70
2022-10-15T04:16:04.497Z,23.00
2022-10-15T04:18:35.871Z,22.90
2022-10-15T04:21:06.795Z,23.10
2022-10-15T04:23:37.749Z,23.00
2022-10-15T04:26:08.750Z,23.00
2022-10-15T04:28:39.750Z,23.20
2022-10-15T04:31:10.757Z,23.20
2022-10-15T04:33:41.636Z,23.30
2022-10-15T04:36:14.188Z,23.00
2022-10-15T04:38:45.123Z,23.20
2022-10-15T04:41:16.419Z,23.20
2022-10-15T04:43:47.336Z,23.20
2022-10-15T04:46:18.725Z,23.20
2022-10-15T04:48:50.088Z,23.10
2022-10-15T04:51:21.832Z,23.20
2022-10-15T04:53:52.845Z,23.20
2022-10-15T04:56:24.232Z,23.20
2022-10-15T04:58:55.333Z,23.00
2022-10-15T05:01:26.239Z,22.90
2022-10-15T05:03:57.121Z,23.10
2022-10-15T05:06:28.117Z,23.00
2022-10-15T05:08:59.049Z,22.90
2022-10-15T05:11:30.832Z,22.90
2022-10-15T05:14:01.695Z,23.10
2022-10-15T05:16:33.675Z,23.10
2022-10-15T05:19:07.467Z,23.30
2022-10-15T05:21:39.455Z,23.30
2022-10-15T05:24:11.005Z,23.30
2022-10-15T05:26:41.895Z,23.40
2022-10-15T05:29:12.796Z,23.50
2022-10-15T05:31:43.727Z,23.50
2022-10-15T05:34:14.641Z,23.10
2022-10-15T05:36:45.533Z,23.20
2022-10-15T05:39:16.481Z,23.30
2022-10-15T05:41:47.433Z,23.40
2022-10-15T05:44:18.304Z,23.40
2022-10-15T05:46:49.272Z,23.20
2022-10-15T05:49:20.216Z,23.10
2022-10-15T05:51:51.180Z,23.30
2022-10-15T05:54:22.111Z,23.10
2022-10-15T05:56:53.142Z,22.90
2022-10-15T05:59:24.108Z,23.00
2022-10-15T06:01:55.006Z,23.10
2022-10-15T06:04:26.182Z,23.10
2022-10-15T06:06:57.071Z,23.10
2022-10-15T06:09:28.704Z,23.10
2022-10-15T06:11:59.852Z,23.00
2022-10-15T06:14:31.352Z,23.10
2022-10-15T06:17:02.245Z,23.10
2022-10-15T06:19:33.196Z,23.30
2022-10-15T06:22:04.114Z,23.20
2022-10-15T06:24:35.023Z,23.10
2022-10-15T06:27:05.894Z,23.10
2022-10-15T06:29:36.777Z,23.20
2022-10-15T06:32:11.735Z,23.20
2022-10-15T06:34:42.800Z,23.30
2022-10-15T06:37:13.693Z,23.20
2022-10-15T06:39:46.710Z,22.80
2022-10-15T06:42:17.710Z,23.20
2022-10-15T06:44:48.588Z,23.40
2022-10-15T06:47:19.447Z,23.20
2022-10-15T06:49:50.377Z,23.10
2022-10-15T06:52:21.420Z,23.20
2022-10-15T06:54:52.582Z,23.10
2022-10-15T06:57:25.743Z,23.40
2022-10-15T06:59:57.179Z,23.30
2022-10-15T07:02:28.032Z,23.50
2022-10-15T07:04:58.944Z,22.90
2022-10-15T07:07:29.844Z,23.20
2022-10-15T07:10:00.780Z,23.30
2022-10-15T07:12:31.682Z,23.30
2022-10-15T07:15:02.612Z,23.30
2022-10-15T07:17:35.282Z,23.50
2022-10-15T07:20:07.645Z,23.50
2022-10-15T07:22:38.520Z,23.60
2022-10-15T07:25:10.244Z,23.60
2022-10-15T07:27:41.219Z,23.50
2022-10-15T07:30:12.214Z,23.50
2022-10-15T07:32:45.546Z,23.50
2022-10-15T07:35:17.683Z,23.60
2022-10-15T07:37:50.637Z,23.40
2022-10-15T07:40:21.820Z,23.60
2022-10-15T07:42:54.506Z,23.20
2022-10-15T07:45:26.875Z,23.50
2022-10-15T07:47:57.731Z,23.50
2022-10-15T07:50:32.238Z,23.70
2022-10-15T07:53:06.324Z,23.60
2022-10-15T07:55:37.488Z,23.10
2022-10-15T07:58:08.890Z,23.40
2022-10-15T08:00:39.800Z,23.30
2022-10-15T08:03:10.827Z,22.70
2022-10-15T08:05:41.705Z,22.70
2022-10-15T08:08:12.590Z,23.40
2022-10-15T08:10:43.502Z,23.50
2022-10-15T08:13:14.399Z,23.40
2022-10-15T08:15:45.405Z,23.70
2022-10-15T08:18:16.367Z,23.70
2022-10-15T08:20:47.299Z,23.70
2022-10-15T08:23:19.220Z,23.60
2022-10-15T08:25:50.418Z,22.70
2022-10-15T08:28:21.436Z,22.50
2022-10-15T08:30:52.397Z,22.70
2022-10-15T08:33:23.270Z,23.00
2022-10-15T08:35:54.546Z,23.50
2022-10-15T08:38:25.463Z,23.70
2022-10-15T08:41:00.564Z,23.30
2022-10-15T08:43:42.805Z,23.40
2022-10-15T08:46:25.743Z,23.40
2022-10-15T08:49:00.073Z,23.90
2022-10-15T08:51:53.560Z,23.70
2022-10-15T08:54:24.563Z,23.60
2022-10-15T08:57:30.381Z,23.70
2022-10-15T09:00:26.451Z,23.90
2022-10-15T09:03:05.055Z,23.70
2022-10-15T09:05:53.313Z,23.60
2022-10-15T09:08:59.912Z,23.70
2022-10-15T09:11:40.289Z,23.60
2022-10-15T09:14:18.180Z,23.90
2022-10-15T09:16:50.655Z,23.50
2022-10-15T09:19:25.150Z,23.90
2022-10-15T09:21:56.716Z,24.00
2022-10-15T09:24:30.511Z,23.70
2022-10-15T09:27:24.239Z,23.60
2022-10-15T09:30:37.124Z,23.70
2022-10-15T09:33:18.771Z,23.70
2022-10-15T09:36:27.718Z,24.00
2022-10-15T09:39:22.877Z,24.00
2022-10-15T09:42:31.346Z,24.00
2022-10-15T09:45:15.206Z,24.30
2022-10-15T09:47:46.759Z,24.10
2022-10-15T09:52:53.756Z,24.70
2022-10-15T09:55:58.157Z,24.50
2022-10-15T09:58:40.393Z,24.50
2022-10-15T10:01:23.700Z,24.70
2022-10-15T10:04:17.435Z,24.70
2022-10-15T10:06:53.797Z,24.40
2022-10-15T10:09:54.908Z,24.30
2022-10-15T10:12:31.120Z,25.10
2022-10-15T10:15:35.767Z,23.60
2022-10-15T10:18:18.966Z,24.40
2022-10-15T10:21:21.032Z,24.60
2022-10-15T10:23:52.328Z,24.70
2022-10-15T10:26:23.374Z,24.60
2022-10-15T10:29:04.690Z,25.50
2022-10-15T10:31:43.752Z,25.00
2022-10-15T10:34:18.749Z,25.30
2022-10-15T10:36:52.765Z,26.10
2022-10-15T10:39:32.724Z,27.20
2022-10-15T10:42:17.224Z,27.40
2022-10-15T10:44:48.306Z,27.20
2022-10-15T10:47:26.595Z,26.30
2022-10-15T10:49:58.923Z,25.70
2022-10-15T10:52:35.825Z,26.90
2022-10-15T10:55:25.180Z,26.40
2022-10-15T10:57:59.970Z,26.30
2022-10-15T11:00:45.063Z,26.90
2022-10-15T11:03:39.040Z,25.40
2022-10-15T11:06:18.685Z,25.40
2022-10-15T11:09:24.170Z,25.30
2022-10-15T11:12:32.081Z,24.90
2022-10-15T11:15:21.492Z,25.10
2022-10-15T11:18:04.290Z,25.10
2022-10-15T11:21:08.777Z,25.00
2022-10-15T11:24:33.511Z,24.80
2022-10-15T11:27:46.920Z,25.80
2022-10-15T11:30:45.995Z,25.80
2022-10-15T11:33:36.553Z,26.00
2022-10-15T11:36:44.605Z,26.40
2022-10-15T11:40:10.322Z,27.20
2022-10-15T11:42:57.268Z,27.30
2022-10-15T11:45:42.890Z,25.90
2022-10-15T11:48:26.404Z,26.20
2022-10-15T11:51:14.626Z,25.40
2022-10-15T11:54:31.811Z,25.90
2022-10-15T11:57:05.251Z,26.00
2022-10-15T11:59:55.016Z,25.20
2022-10-15T12:02:36.916Z,25.10
2022-10-15T12:05:36.297Z,25.60
2022-10-15T12:08:10.886Z,25.50
2022-10-15T12:11:23.094Z,25.70
2022-10-15T12:14:16.525Z,26.40
2022-10-15T12:17:40.476Z,25.80
2022-10-15T12:20:18.799Z,25.60
2022-10-15T12:22:52.643Z,25.10
2022-10-15T12:25:35.741Z,25.10
2022-10-15T12:28:16.358Z,25.20
2022-10-15T12:31:01.529Z,26.40
2022-10-15T12:33:43.953Z,26.30
2022-10-15T12:36:29.351Z,25.70
2022-10-15T12:39:17.552Z,26.00
2022-10-15T12:42:00.204Z,25.00
2022-10-15T12:44:34.017Z,24.60
2022-10-15T12:47:04.915Z,24.10
2022-10-15T12:50:00.859Z,24.40
2022-10-15T12:53:05.653Z,24.20
2022-10-15T12:55:38.792Z,24.20
2022-10-15T12:58:33.063Z,24.30
2022-10-15T13:01:13.540Z,25.00
2022-10-15T13:03:53.009Z,24.70
2022-10-15T13:06:40.172Z,24.20
2022-10-15T13:09:14.256Z,23.80
2022-10-15T13:11:54.742Z,24.10
2022-10-15T13:14:42.953Z,24.30
2022-10-15T13:17:20.822Z,24.80
2022-10-15T13:20:04.740Z,24.70
2022-10-15T13:22:37.446Z,25.30
2022-10-15T13:25:18.569Z,25.60
2022-10-15T13:27:49.466Z,25.80
2022-10-15T13:30:20.505Z,24.70
2022-10-15T13:32:54.205Z,24.80
2022-10-15T13:35:39.755Z,24.60
2022-10-15T13:38:25.038Z,24.70
2022-10-15T13:40:56.360Z,25.20
2022-10-15T13:43:28.058Z,24.60
2022-10-15T13:46:01.552Z,24.20
2022-10-15T13:48:33.391Z,24.70
2022-10-15T13:51:06.174Z,24.30
2022-10-15T13:53:41.830Z,24.30
2022-10-15T13:56:33.032Z,24.80
2022-10-15T13:59:04.735Z,25.10
2022-10-15T14:01:36.966Z,24.00
2022-10-15T14:04:22.237Z,24.70
2022-10-15T14:07:03.855Z,24.80
2022-10-15T14:09:40.228Z,25.00
2022-10-15T14:12:12.102Z,25.20
2022-10-15T14:14:49.336Z,24.50
2022-10-15T14:17:20.167Z,25.20
2022-10-15T14:20:22.090Z,25.20
2022-10-15T14:22:49.543Z,25.20
2022-10-15T14:25:26.027Z,24.50
2022-10-15T14:27:57.096Z,24.20
2022-10-15T14:30:32.981Z,24.80
2022-10-15T14:33:04.114Z,25.00
2022-10-15T14:35:37.657Z,24.50
2022-10-15T14:38:08.515Z,25.20
2022-10-15T14:40:39.433Z,25.40
2022-10-15T14:43:18.458Z,24.90
2022-10-15T14:45:52.142Z,25.10
2022-10-15T14:48:35.779Z,25.40
2022-10-15T14:51:14.199Z,24.80
2022-10-15T14:53:46.870Z,24.90
2022-10-15T14:56:23.525Z,25.20
2022-10-15T14:58:56.938Z,25.20
2022-10-15T15:01:29.277Z,25.50
2022-10-15T15:04:00.251Z,25.30
2022-10-15T15:06:32.764Z,25.50
2022-10-15T15:09:03.811Z,25.20
2022-10-15T15:11:34.752Z,25.30
2022-10-15T15:14:27.849Z,25.20
2022-10-15T15:17:01.210Z,25.10
2022-10-15T15:19:32.128Z,25.60
2022-10-15T15:22:03.082Z,25.10
2022-10-15T15:24:34.002Z,25.90
2022-10-15T15:27:05.173Z,25.50
2022-10-15T15:29:38.972Z,25.80
2022-10-15T15:32:10.709Z,26.00
2022-10-15T15:34:41.816Z,25.90
2022-10-15T15:37:22.832Z,25.40
2022-10-15T15:39:55.500Z,25.80
2022-10-15T15:42:26.804Z,25.50
2022-10-15T15:44:57.881Z,26.00
2022-10-15T15:47:28.846Z,26.20
2022-10-15T15:49:59.819Z,26.30
2022-10-15T15:52:32.610Z,26.40
2022-10-15T15:55:07.556Z,26.50
2022-10-15T15:57:44.196Z,26.20
2022-10-15T16:00:16.184Z,26.20
2022-10-15T16:02:47.227Z,26.40
2022-10-15T16:05:18.167Z,26.30
2022-10-15T16:07:51.852Z,26.00
2022-10-15T16:10:23.021Z,25.90
2022-10-15T16:12:55.907Z,25.90
2022-10-15T16:15:26.925Z,26.40
2022-10-15T16:17:57.924Z,25.50
2022-10-15T16:20:30.846Z,25.20
2022-10-15T16:23:01.723Z,25.60
2022-10-15T16:25:32.761Z,24.80
2022-10-15T16:28:03.746Z,25.10
2022-10-15T16:30:34.964Z,24.70
2022-10-15T16:35:37.770Z,24.20
2022-10-15T16:38:11.949Z,24.80
2022-10-15T16:40:47.496Z,25.00
2022-10-15T16:43:18.438Z,25.20
2022-10-15T16:45:57.352Z,24.90
2022-10-15T16:48:31.331Z,24.20
2022-10-15T16:51:08.356Z,24.00
2022-10-15T16:53:41.092Z,24.10
2022-10-15T16:56:19.147Z,24.60
2022-10-15T16:58:50.333Z,23.70
2022-10-15T17:01:27.825Z,24.10
2022-10-15T17:04:02.099Z,24.00
2022-10-15T17:06:33.125Z,24.20
2022-10-15T17:09:04.530Z,24.30
2022-10-15T17:11:40.878Z,24.10
2022-10-15T17:14:19.644Z,23.60
2022-10-15T17:16:52.903Z,23.90
2022-10-15T17:19:29.090Z,23.90
2022-10-15T17:22:02.879Z,24.60
2022-10-15T17:24:33.835Z,25.00
2022-10-15T17:27:07.019Z,23.50
2022-10-15T17:29:38.257Z,23.40
2022-10-15T17:32:09.146Z,24.50
2022-10-15T17:34:40.221Z,23.60
2022-10-15T17:37:11.361Z,24.70
2022-10-15T17:39:44.282Z,24.10
2022-10-15T17:42:16.085Z,23.70
2022-10-15T17:44:47.023Z,24.00
2022-10-15T17:47:28.835Z,23.90
2022-10-15T17:49:59.881Z,23.30
2022-10-15T17:52:31.085Z,24.00
2022-10-15T17:55:02.053Z,23.70
2022-10-15T17:57:33.099Z,23.70
2022-10-15T18:00:08.526Z,23.70
2022-10-15T18:02:39.539Z,24.30
2022-10-15T18:05:10.561Z,24.10
2022-10-15T18:07:41.567Z,24.60
2022-10-15T18:10:12.711Z,24.40
2022-10-15T18:12:43.720Z,23.50
2022-10-15T18:15:14.684Z,23.90
2022-10-15T18:17:45.611Z,24.30
2022-10-15T18:20:19.562Z,23.80
2022-10-15T18:22:51.930Z,24.00
2022-10-15T18:25:22.981Z,23.90
2022-10-15T18:27:53.955Z,23.70
2022-10-15T18:30:24.896Z,24.00
2022-10-15T18:32:58.069Z,24.40
2022-10-15T18:35:30.137Z,24.30
2022-10-15T18:38:01.160Z,23.90
2022-10-15T18:40:40.968Z,24.70
2022-10-15T18:43:13.434Z,24.80
2022-10-15T18:45:47.435Z,24.50
2022-10-15T18:48:18.376Z,24.70
2022-10-15T18:50:49.367Z,24.80
2022-10-15T18:53:20.596Z,24.80
2022-10-15T18:55:52.818Z,25.00
2022-10-15T18:58:23.774Z,25.00
2022-10-15T19:00:54.769Z,25.10
2022-10-15T19:03:25.788Z,25.30
2022-10-15T19:05:57.338Z,25.30
2022-10-15T19:08:28.940Z,25.10
2022-10-15T19:11:08.792Z,25.00
2022-10-15T19:13:39.782Z,25.10
2022-10-15T19:16:15.373Z,24.40
2022-10-15T19:18:46.277Z,25.00
2022-10-15T19:21:17.539Z,24.90
2022-10-15T19:23:51.645Z,25.00
2022-10-15T19:26:25.790Z,25.00
2022-10-15T19:29:00.922Z,25.10
2022-10-15T19:31:36.162Z,25.00
2022-10-15T19:34:07.993Z,24.40
2022-10-15T19:36:46.667Z,24.40
2022-10-15T19:39:26.289Z,23.90
2022-10-15T19:42:00.098Z,24.30
2022-10-15T19:44:31.123Z,24.10
2022-10-15T19:47:02.026Z,24.50
2022-10-15T19:49:34.116Z,24.60
2022-10-15T19:52:07.233Z,25.00
2022-10-15T19:54:38.154Z,24.60
2022-10-15T19:57:09.059Z,24.80
2022-10-15T19:59:40.440Z,24.50
2022-10-15T20:02:12.701Z,24.50
2022-10-15T20:04:43.601Z,24.50
2022-10-15T20:07:15.636Z,25.00
2022-10-15T20:09:47.042Z,25.20
2022-10-15T20:12:21.570Z,25.20
2022-10-15T20:14:57.860Z,24.50
2022-10-15T20:17:28.871Z,24.60
2022-10-15T20:19:59.843Z,24.80
2022-10-15T20:22:30.767Z,25.00
2022-10-15T20:25:01.797Z,24.50
2022-10-15T20:27:33.368Z,24.90
2022-10-15T20:30:07.996Z,24.30
2022-10-15T20:32:39.128Z,24.90
2022-10-15T20:35:10.349Z,25.10
2022-10-15T20:37:41.330Z,25.10
2022-10-15T20:40:13.403Z,25.10
2022-10-15T20:42:44.353Z,25.10
2022-10-15T20:45:18.059Z,25.10
2022-10-15T20:47:55.199Z,24.70
2022-10-15T20:50:36.786Z,24.40
2022-10-15T20:53:07.766Z,24.00
2022-10-15T20:55:38.781Z,24.30
2022-10-15T20:58:09.916Z,23.90
2022-10-15T21:00:41.177Z,24.30
2022-10-15T21:03:12.451Z,24.10
2022-10-15T21:05:43.330Z,24.00
2022-10-15T21:08:14.398Z,24.50
2022-10-15T21:10:45.292Z,24.90
2022-10-15T21:13:16.338Z,24.90
2022-10-15T21:15:47.282Z,25.00
2022-10-15T21:18:18.161Z,24.90
2022-10-15T21:20:49.104Z,24.80
2022-10-15T21:23:20.136Z,24.90
2022-10-15T21:25:51.017Z,24.70
2022-10-15T21:28:21.943Z,24.40
2022-10-15T21:30:52.982Z,24.60
2022-10-15T21:33:23.958Z,24.60
2022-10-15T21:35:54.902Z,24.60
2022-10-15T21:38:28.675Z,24.50
2022-10-15T21:40:59.561Z,24.60
2022-10-15T21:43:30.477Z,24.60
2022-10-15T21:46:13.378Z,24.70
2022-10-15T21:48:44.888Z,24.90
2022-10-15T21:51:20.517Z,24.70
2022-10-15T21:53:51.913Z,24.70
2022-10-15T21:56:23.146Z,24.40
2022-10-15T21:58:54.807Z,24.50
2022-10-15T22:01:34.891Z,24.60
2022-10-15T22:04:11.124Z,24.40
2022-10-15T22:06:42.222Z,24.40
2022-10-15T22:09:13.180Z,24.30
2022-10-15T22:11:44.098Z,24.40
2022-10-15T22:14:15.247Z,24.30
2022-10-15T22:16:46.100Z,24.60
2022-10-15T22:19:18.433Z,24.60
2022-10-15T22:21:49.376Z,24.70
2022-10-15T22:24:21.231Z,24.50
2022-10-15T22:26:53.412Z,24.50
2022-10-15T22:29:33.045Z,24.30
2022-10-15T22:32:06.216Z,24.40
2022-10-15T22:34:37.310Z,24.20
2022-10-15T22:37:08.200Z,23.60
2022-10-15T22:39:40.520Z,23.90
2022-10-15T22:42:11.507Z,23.60
2022-10-15T22:44:42.430Z,23.10
2022-10-15T22:47:13.358Z,23.80
2022-10-15T22:49:44.287Z,23.50
2022-10-15T22:52:15.189Z,23.60
2022-10-15T22:54:46.124Z,23.60
2022-10-15T22:57:16.974Z,24.10
2022-10-15T22:59:47.913Z,24.10
2022-10-15T23:02:21.645Z,24.00
2022-10-15T23:04:52.583Z,23.90
2022-10-15T23:07:23.444Z,24.10
2022-10-15T23:09:54.359Z,24.30
2022-10-15T23:12:25.365Z,24.20
2022-10-15T23:14:56.396Z,23.90
2022-10-15T23:17:27.327Z,23.90
2022-10-15T23:19:58.302Z,23.80
2022-10-15T23:22:29.194Z,24.10
2022-10-15T23:25:00.905Z,24.30
2022-10-15T23:27:31.852Z,24.10
2022-10-15T23:30:14.363Z,24.00
2022-10-15T23:32:53.707Z,24.10
2022-10-15T23:35:24.707Z,24.20
2022-10-15T23:37:55.617Z,23.90
2022-10-15T23:40:26.482Z,23.90
2022-10-15T23:42:57.325Z,23.80
2022-10-15T23:45:28.199Z,23.90
2022-10-15T23:47:59.026Z,23.70
2022-10-15T23:50:35.339Z,23.50
2022-10-15T23:53:06.229Z,23.60
2022-10-15T23:55:40.773Z,23.70
2022-10-15T23:58:12.081Z,23.90
